createdAt,value
2022-07-25T00:02:08.901Z,18.89
2022-07-25T00:04:36.474Z,18.88
2022-07-25T00:07:04.096Z,18.81
2022-07-25T00:09:33.972Z,18.74
2022-07-25T00:12:00.960Z,18.70
2022-07-25T00:14:28.256Z,18.71
2022-07-25T00:16:55.515Z,18.70
2022-07-25T00:19:22.883Z,18.76
2022-07-25T00:21:51.362Z,18.68
2022-07-25T00:24:21.147Z,18.66
2022-07-25T00:26:48.204Z,18.61
2022-07-25T00:29:15.491Z,18.58
2022-07-25T00:31:42.908Z,18.49
2022-07-25T00:34:10.448Z,18.40
2022-07-25T00:36:38.310Z,18.36
2022-07-25T00:39:05.817Z,18.32
2022-07-25T00:41:33.329Z,18.31
2022-07-25T00:44:01.455Z,18.35
2022-07-25T00:46:29.833Z,18.30
2022-07-25T00:48:58.540Z,18.30
2022-07-25T00:51:26.047Z,18.25
2022-07-25T00:53:52.997Z,18.20
2022-07-25T00:56:23.644Z,18.19
2022-07-25T00:58:53.401Z,18.16
2022-07-25T01:01:22.850Z,18.13
2022-07-25T01:03:50.404Z,18.07
2022-07-25T01:06:19.011Z,18.02
2022-07-25T01:08:51.787Z,18.01
2022-07-25T01:11:19.165Z,17.97
2022-07-25T01:13:46.418Z,17.92
2022-07-25T01:16:14.348Z,17.89
2022-07-25T01:18:42.843Z,17.84
2022-07-25T01:21:12.432Z,17.82
2022-07-25T01:23:45.351Z,17.80
2022-07-25T01:26:13.102Z,17.79
2022-07-25T01:28:40.792Z,17.75
2022-07-25T01:31:08.031Z,17.72
2022-07-25T01:33:37.391Z,17.70
2022-07-25T01:36:04.931Z,17.70
2022-07-25T01:38:32.011Z,17.68
2022-07-25T01:40:59.344Z,17.64
2022-07-25T01:43:28.603Z,17.61
2022-07-25T01:45:56.141Z,17.56
2022-07-25T01:48:23.754Z,17.54
2022-07-25T01:50:50.885Z,17.49
2022-07-25T01:53:21.337Z,17.44
2022-07-25T01:55:48.835Z,17.38
2022-07-25T01:58:15.794Z,17.31
2022-07-25T02:00:46.928Z,17.15
2022-07-25T02:03:32.411Z,17.04
2022-07-25T02:06:08.262Z,16.93
2022-07-25T02:08:35.720Z,16.81
2022-07-25T02:11:06.015Z,16.73
2022-07-25T02:13:33.110Z,16.68
2022-07-25T02:16:00.563Z,16.63
2022-07-25T02:18:30.850Z,16.59
2022-07-25T02:21:00.452Z,16.57
2022-07-25T02:23:27.845Z,16.53
2022-07-25T02:25:54.815Z,16.48
2022-07-25T02:28:26.326Z,16.45
2022-07-25T02:30:53.552Z,16.42
2022-07-25T02:33:20.535Z,16.38
2022-07-25T02:35:47.571Z,16.34
2022-07-25T02:38:19.846Z,16.31
2022-07-25T02:40:50.242Z,16.28
2022-07-25T02:43:17.963Z,16.25
2022-07-25T02:45:45.481Z,16.20
2022-07-25T02:48:13.251Z,16.28
2022-07-25T02:50:40.569Z,16.45
2022-07-25T02:53:07.599Z,16.52
2022-07-25T02:55:37.320Z,16.47
2022-07-25T02:58:06.967Z,16.45
2022-07-25T03:00:37.160Z,16.44
2022-07-25T03:03:04.315Z,16.47
2022-07-25T03:05:31.607Z,16.45
2022-07-25T03:07:58.608Z,16.47
2022-07-25T03:10:25.597Z,16.48
2022-07-25T03:12:52.831Z,16.44
2022-07-25T03:15:19.792Z,16.39
2022-07-25T03:17:46.762Z,16.37
2022-07-25T03:20:16.261Z,16.36
2022-07-25T03:22:43.166Z,16.33
2022-07-25T03:25:16.034Z,16.29
2022-07-25T03:27:49.088Z,16.26
2022-07-25T03:30:18.381Z,16.23
2022-07-25T03:32:48.138Z,16.30
2022-07-25T03:35:15.681Z,16.34
2022-07-25T03:37:45.789Z,16.34
2022-07-25T03:40:14.586Z,16.30
2022-07-25T03:42:43.882Z,16.27
2022-07-25T03:45:12.947Z,16.24
2022-07-25T03:47:40.285Z,16.26
2022-07-25T03:50:08.262Z,16.28
2022-07-25T03:52:35.862Z,16.40
2022-07-25T03:55:02.936Z,16.75
2022-07-25T03:57:30.071Z,17.14
2022-07-25T03:59:57.153Z,17.48
2022-07-25T04:02:26.715Z,18.54
2022-07-25T04:04:53.919Z,19.34
2022-07-25T04:07:21.336Z,19.28
2022-07-25T04:09:50.797Z,19.27
2022-07-25T04:12:17.941Z,19.29
2022-07-25T04:14:47.594Z,19.05
2022-07-25T04:17:17.511Z,18.75
2022-07-25T04:19:44.710Z,18.64
2022-07-25T04:22:14.467Z,18.45
2022-07-25T04:24:44.023Z,18.41
2022-07-25T04:27:11.157Z,18.45
2022-07-25T04:29:38.137Z,18.50
2022-07-25T04:32:05.874Z,18.55
2022-07-25T04:34:33.107Z,18.51
2022-07-25T04:37:02.393Z,18.45
2022-07-25T04:39:30.269Z,18.59
2022-07-25T04:41:59.571Z,18.61
2022-07-25T04:44:28.873Z,18.69
2022-07-25T04:46:56.009Z,18.72
2022-07-25T04:49:23.169Z,18.90
2022-07-25T04:51:51.317Z,19.28
2022-07-25T04:54:18.804Z,19.36
2022-07-25T04:56:45.943Z,19.36
2022-07-25T04:59:12.980Z,19.38
2022-07-25T05:01:39.864Z,19.51
2022-07-25T05:04:09.518Z,19.67
2022-07-25T05:06:36.772Z,19.73
2022-07-25T05:09:04.246Z,19.81
2022-07-25T05:11:31.840Z,19.75
2022-07-25T05:13:58.943Z,19.77
2022-07-25T05:16:26.143Z,19.93
2022-07-25T05:18:55.678Z,20.06
2022-07-25T05:21:23.859Z,20.36
2022-07-25T05:23:50.805Z,22.14
2022-07-25T05:26:18.106Z,23.79
2022-07-25T05:28:44.996Z,23.63
2022-07-25T05:31:11.983Z,23.52
2022-07-25T05:33:40.007Z,23.51
2022-07-25T05:36:09.763Z,23.12
2022-07-25T05:38:36.919Z,22.89
2022-07-25T05:41:04.579Z,23.23
2022-07-25T05:43:33.715Z,24.22
2022-07-25T05:46:02.599Z,24.08
2022-07-25T05:48:30.159Z,23.48
2022-07-25T05:50:59.203Z,23.43
2022-07-25T05:53:26.223Z,23.89
2022-07-25T05:55:53.321Z,23.50
2022-07-25T05:58:27.550Z,23.05
2022-07-25T06:00:57.741Z,22.91
2022-07-25T06:03:24.923Z,23.19
2022-07-25T06:05:51.903Z,23.35
2022-07-25T06:08:19.124Z,23.33
2022-07-25T06:10:49.626Z,23.80
2022-07-25T06:13:16.556Z,24.79
2022-07-25T06:15:47.305Z,24.73
2022-07-25T06:18:14.331Z,24.44
2022-07-25T06:20:41.487Z,24.26
2022-07-25T06:23:08.660Z,23.99
2022-07-25T06:25:35.851Z,23.73
2022-07-25T06:28:02.958Z,23.76
2022-07-25T06:30:30.425Z,23.70
2022-07-25T06:32:57.487Z,23.90
2022-07-25T06:35:25.534Z,24.17
2022-07-25T06:37:52.820Z,24.31
2022-07-25T06:40:20.370Z,24.44
2022-07-25T06:42:47.877Z,24.79
2022-07-25T06:45:16.500Z,25.15
2022-07-25T06:47:44.955Z,25.55
2022-07-25T06:50:18.553Z,25.71
2022-07-25T06:52:48.888Z,25.95
2022-07-25T06:55:16.042Z,26.26
2022-07-25T06:57:43.549Z,26.28
2022-07-25T07:00:12.870Z,26.83
2022-07-25T07:02:53.355Z,27.21
2022-07-25T07:05:21.046Z,28.79
2022-07-25T07:07:48.340Z,31.06
2022-07-25T07:10:16.676Z,32.05
2022-07-25T07:12:46.595Z,32.84
2022-07-25T07:15:13.835Z,33.61
2022-07-25T07:17:41.275Z,33.90
2022-07-25T07:20:11.940Z,34.30
2022-07-25T07:22:49.331Z,34.51
2022-07-25T07:25:19.688Z,34.54
2022-07-25T07:27:48.075Z,34.87
2022-07-25T07:30:16.849Z,34.91
2022-07-25T07:32:47.484Z,35.05
2022-07-25T07:35:16.650Z,35.07
2022-07-25T07:37:46.871Z,35.91
2022-07-25T07:40:17.936Z,36.32
2022-07-25T07:42:47.571Z,36.42
2022-07-25T07:45:17.774Z,36.74
2022-07-25T07:47:48.285Z,37.40
2022-07-25T07:50:18.000Z,37.32
2022-07-25T07:52:48.786Z,36.90
2022-07-25T07:55:35.183Z,36.88
2022-07-25T07:58:02.655Z,37.57
2022-07-25T08:00:35.928Z,37.56
2022-07-25T08:03:03.622Z,38.42
2022-07-25T08:05:34.642Z,38.31
2022-07-25T08:08:02.205Z,37.94
2022-07-25T08:10:33.005Z,38.53
2022-07-25T08:13:12.669Z,38.09
2022-07-25T08:15:44.117Z,37.91
2022-07-25T08:18:17.138Z,38.34
2022-07-25T08:20:49.011Z,38.21
2022-07-25T08:23:16.634Z,37.63
2022-07-25T08:25:44.485Z,37.86
2022-07-25T08:28:11.811Z,38.04
2022-07-25T08:30:40.581Z,38.27
2022-07-25T08:33:13.610Z,37.75
2022-07-25T08:35:45.665Z,37.80
2022-07-25T08:38:15.685Z,37.71
2022-07-25T08:40:42.874Z,37.64
2022-07-25T08:43:13.051Z,37.95
2022-07-25T08:45:49.149Z,38.17
2022-07-25T08:48:22.196Z,38.39
2022-07-25T08:50:50.649Z,38.17
2022-07-25T08:53:36.128Z,37.08
2022-07-25T08:56:16.017Z,36.99
2022-07-25T08:58:46.240Z,37.35
2022-07-25T09:01:14.458Z,37.61
2022-07-25T09:03:44.933Z,37.24
2022-07-25T09:06:20.163Z,37.08
2022-07-25T09:09:00.610Z,37.40
2022-07-25T09:11:34.117Z,37.55
2022-07-25T09:14:07.368Z,37.57
2022-07-25T09:16:40.330Z,37.87
2022-07-25T09:19:16.750Z,37.87
2022-07-25T09:21:45.713Z,37.86
2022-07-25T09:24:19.389Z,36.98
2022-07-25T09:26:53.769Z,37.43
2022-07-25T09:29:35.219Z,36.97
2022-07-25T09:32:16.629Z,37.65
2022-07-25T09:34:46.250Z,37.92
2022-07-25T09:37:15.857Z,37.41
2022-07-25T09:39:48.230Z,37.76
2022-07-25T09:42:32.793Z,37.90
2022-07-25T09:45:07.316Z,37.72
2022-07-25T09:47:37.399Z,37.06
2022-07-25T09:50:06.068Z,37.25
2022-07-25T09:52:33.960Z,37.95
2022-07-25T09:55:04.381Z,37.65
2022-07-25T09:57:31.642Z,37.45
2022-07-25T10:00:00.857Z,38.15
2022-07-25T10:02:53.142Z,38.40
2022-07-25T10:05:44.519Z,37.09
2022-07-25T10:08:12.188Z,37.58
2022-07-25T10:10:41.710Z,37.34
2022-07-25T10:13:15.485Z,37.36
2022-07-25T10:15:42.587Z,37.10
2022-07-25T10:18:16.265Z,36.16
2022-07-25T10:20:45.379Z,36.58
2022-07-25T10:23:18.718Z,36.71
2022-07-25T10:25:49.109Z,37.00
2022-07-25T10:28:19.933Z,37.20
2022-07-25T10:30:47.300Z,37.09
2022-07-25T10:33:18.450Z,36.94
2022-07-25T10:35:49.887Z,36.86
2022-07-25T10:38:26.711Z,37.06
2022-07-25T10:40:56.889Z,36.24
2022-07-25T10:43:27.545Z,36.44
2022-07-25T10:45:59.378Z,36.40
2022-07-25T10:48:26.649Z,36.83
2022-07-25T10:51:03.646Z,35.97
2022-07-25T10:53:34.058Z,34.88
2022-07-25T10:56:13.778Z,35.17
2022-07-25T10:58:54.668Z,35.52
2022-07-25T11:01:32.194Z,35.23
2022-07-25T11:04:06.275Z,35.01
2022-07-25T11:06:38.435Z,36.18
2022-07-25T11:09:25.078Z,36.15
2022-07-25T11:11:57.649Z,35.82
2022-07-25T11:14:33.539Z,35.74
2022-07-25T11:17:16.168Z,35.97
2022-07-25T11:19:45.345Z,35.91
2022-07-25T11:22:12.746Z,35.70
2022-07-25T11:24:47.060Z,36.02
2022-07-25T11:27:24.871Z,36.02
2022-07-25T11:29:52.314Z,36.09
2022-07-25T11:32:20.715Z,35.74
2022-07-25T11:34:52.337Z,35.19
2022-07-25T11:37:20.930Z,35.28
2022-07-25T11:39:50.660Z,35.91
2022-07-25T11:42:20.557Z,35.20
2022-07-25T11:44:50.573Z,34.88
2022-07-25T11:47:25.669Z,35.04
2022-07-25T11:49:59.213Z,35.07
2022-07-25T11:52:34.701Z,35.23
2022-07-25T11:55:05.033Z,35.58
2022-07-25T11:57:39.045Z,35.78
2022-07-25T12:00:11.839Z,34.72
2022-07-25T12:02:39.130Z,34.60
2022-07-25T12:05:08.051Z,34.43
2022-07-25T12:07:47.202Z,34.61
2022-07-25T12:10:24.450Z,34.26
2022-07-25T12:12:54.961Z,33.93
2022-07-25T12:15:29.811Z,33.63
2022-07-25T12:17:58.824Z,33.76
2022-07-25T12:20:29.284Z,33.66
2022-07-25T12:23:05.055Z,33.55
2022-07-25T12:25:34.148Z,33.58
2022-07-25T12:28:01.713Z,33.43
2022-07-25T12:30:32.860Z,33.65
2022-07-25T12:33:05.536Z,33.53
2022-07-25T12:35:33.409Z,33.44
2022-07-25T12:38:01.130Z,33.36
2022-07-25T12:40:28.839Z,33.46
2022-07-25T12:42:57.374Z,33.60
2022-07-25T12:45:24.962Z,33.60
2022-07-25T12:47:52.163Z,33.55
2022-07-25T12:50:19.738Z,33.74
2022-07-25T12:52:47.644Z,33.68
2022-07-25T12:55:17.226Z,33.69
2022-07-25T12:57:45.206Z,33.82
2022-07-25T13:00:15.526Z,33.81
2022-07-25T13:02:42.913Z,33.76
2022-07-25T13:05:13.516Z,33.54
2022-07-25T13:07:43.396Z,33.66
2022-07-25T13:10:21.128Z,33.84
2022-07-25T13:12:51.024Z,33.73
2022-07-25T13:15:20.719Z,33.52
2022-07-25T13:17:50.221Z,33.57
2022-07-25T13:20:17.995Z,33.80
2022-07-25T13:22:47.944Z,33.81
2022-07-25T13:25:15.085Z,34.07
2022-07-25T13:27:43.485Z,34.10
2022-07-25T13:30:15.009Z,34.04
2022-07-25T13:32:45.237Z,34.05
2022-07-25T13:35:36.583Z,34.05
2022-07-25T13:38:06.144Z,34.03
2022-07-25T13:40:34.083Z,34.05
2022-07-25T13:43:16.918Z,33.98
2022-07-25T13:45:52.858Z,33.90
2022-07-25T13:48:30.894Z,33.86
2022-07-25T13:51:02.321Z,33.72
2022-07-25T13:53:30.860Z,33.74
2022-07-25T13:55:59.831Z,33.64
2022-07-25T13:58:28.424Z,33.86
2022-07-25T14:00:58.022Z,33.97
2022-07-25T14:03:28.005Z,34.02
2022-07-25T14:06:00.226Z,33.93
2022-07-25T14:08:34.582Z,34.07
2022-07-25T14:11:02.554Z,34.03
2022-07-25T14:13:30.698Z,33.82
2022-07-25T14:15:58.159Z,33.69
2022-07-25T14:18:26.583Z,33.75
2022-07-25T14:20:55.236Z,33.79
2022-07-25T14:23:25.718Z,33.76
2022-07-25T14:25:59.586Z,33.90
2022-07-25T14:28:27.246Z,33.72
2022-07-25T14:30:54.891Z,33.72
2022-07-25T14:33:22.522Z,33.69
2022-07-25T14:35:49.736Z,33.82
2022-07-25T14:38:19.411Z,33.96
2022-07-25T14:40:48.079Z,33.92
2022-07-25T14:43:15.351Z,33.90
2022-07-25T14:45:42.814Z,33.96
2022-07-25T14:48:10.632Z,33.89
2022-07-25T14:50:37.782Z,33.91
2022-07-25T14:53:05.201Z,33.90
2022-07-25T14:55:35.084Z,33.85
2022-07-25T14:58:04.018Z,33.79
2022-07-25T15:00:31.598Z,33.77
2022-07-25T15:02:59.105Z,33.83
2022-07-25T15:05:30.604Z,33.87
2022-07-25T15:07:57.807Z,33.85
2022-07-25T15:10:25.222Z,33.82
2022-07-25T15:13:13.648Z,33.82
2022-07-25T15:15:40.294Z,33.80
2022-07-25T15:18:13.440Z,33.68
2022-07-25T15:20:41.317Z,33.64
2022-07-25T15:23:09.023Z,33.72
2022-07-25T15:28:25.565Z,33.71
2022-07-25T15:31:05.201Z,33.64
2022-07-25T15:33:35.746Z,33.60
2022-07-25T15:36:06.130Z,33.54
2022-07-25T15:38:33.974Z,33.51
2022-07-25T15:41:01.344Z,33.45
2022-07-25T15:43:28.423Z,33.42
2022-07-25T15:46:00.805Z,33.46
2022-07-25T15:48:29.261Z,33.42
2022-07-25T15:50:58.825Z,33.30
2022-07-25T15:53:26.537Z,33.26
2022-07-25T15:55:53.919Z,33.22
2022-07-25T15:58:23.465Z,33.21
2022-07-25T16:00:53.364Z,33.19
2022-07-25T16:03:21.743Z,33.23
2022-07-25T16:05:49.353Z,33.21
2022-07-25T16:08:17.482Z,33.20
2022-07-25T16:10:44.677Z,33.18
2022-07-25T16:13:14.116Z,33.11
2022-07-25T16:15:41.825Z,33.04
2022-07-25T16:18:08.968Z,33.02
2022-07-25T16:20:36.649Z,32.96
2022-07-25T16:23:05.512Z,32.95
2022-07-25T16:25:33.779Z,32.94
2022-07-25T16:28:03.894Z,32.91
2022-07-25T16:30:34.703Z,32.86
2022-07-25T16:33:02.709Z,32.85
2022-07-25T16:35:33.594Z,32.82
2022-07-25T16:38:01.018Z,32.74
2022-07-25T16:40:31.292Z,32.71
2022-07-25T16:42:59.409Z,32.64
2022-07-25T16:45:27.206Z,32.54
2022-07-25T16:47:56.936Z,32.49
2022-07-25T16:50:24.091Z,32.47
2022-07-25T16:52:54.112Z,32.47
2022-07-25T16:55:23.733Z,32.43
2022-07-25T16:57:51.087Z,32.43
2022-07-25T17:00:18.435Z,32.31
2022-07-25T17:02:46.848Z,32.33
2022-07-25T17:05:14.145Z,32.32
2022-07-25T17:07:44.352Z,32.25
2022-07-25T17:10:12.045Z,32.21
2022-07-25T17:12:42.317Z,32.13
2022-07-25T17:15:13.252Z,32.09
2022-07-25T17:17:40.827Z,32.07
2022-07-25T17:20:08.984Z,32.01
2022-07-25T17:22:36.690Z,31.97
2022-07-25T17:25:04.077Z,31.93
2022-07-25T17:27:35.147Z,31.77
2022-07-25T17:30:04.787Z,31.75
2022-07-25T17:32:31.801Z,31.75
2022-07-25T17:34:59.733Z,31.75
2022-07-25T17:37:28.171Z,31.66
2022-07-25T17:39:59.813Z,31.64
2022-07-25T17:42:27.315Z,31.46
2022-07-25T17:44:54.737Z,31.37
2022-07-25T17:47:23.057Z,31.25
2022-07-25T17:49:50.842Z,31.24
2022-07-25T17:52:20.677Z,31.16
2022-07-25T17:54:50.198Z,31.16
2022-07-25T17:57:17.471Z,31.09
2022-07-25T17:59:45.098Z,31.01
2022-07-25T18:02:15.022Z,30.91
2022-07-25T18:04:42.382Z,30.79
2022-07-25T18:07:09.390Z,30.68
2022-07-25T18:09:37.136Z,30.46
2022-07-25T18:12:04.704Z,30.34
2022-07-25T18:14:31.700Z,30.30
2022-07-25T18:16:58.958Z,30.24
2022-07-25T18:19:26.581Z,30.02
2022-07-25T18:21:53.583Z,29.88
2022-07-25T18:24:23.808Z,29.72
2022-07-25T18:26:56.795Z,29.64
2022-07-25T18:29:23.968Z,29.50
2022-07-25T18:31:51.153Z,29.56
2022-07-25T18:34:18.432Z,29.42
2022-07-25T18:36:47.598Z,29.36
2022-07-25T18:39:14.773Z,29.37
2022-07-25T18:41:42.121Z,29.33
2022-07-25T18:44:09.845Z,29.24
2022-07-25T18:46:38.862Z,29.10
2022-07-25T18:49:08.972Z,29.02
2022-07-25T18:51:36.026Z,28.91
2022-07-25T18:54:03.077Z,28.92
2022-07-25T18:56:30.841Z,28.74
2022-07-25T19:01:55.086Z,28.63
2022-07-25T19:04:22.821Z,28.59
2022-07-25T19:06:50.277Z,28.53
2022-07-25T19:09:19.113Z,28.48
2022-07-25T19:11:46.281Z,28.38
2022-07-25T19:14:13.615Z,28.21
2022-07-25T19:16:41.135Z,28.16
2022-07-25T19:19:10.906Z,28.04
2022-07-25T19:21:40.216Z,27.93
2022-07-25T19:24:07.845Z,27.91
2022-07-25T19:26:35.237Z,27.85
2022-07-25T19:29:02.211Z,27.70
2022-07-25T19:31:29.476Z,27.66
2022-07-25T19:33:56.489Z,27.48
2022-07-25T19:36:23.567Z,27.38
2022-07-25T19:38:50.783Z,27.36
2022-07-25T19:41:17.881Z,27.27
2022-07-25T19:43:47.191Z,27.12
2022-07-25T19:46:16.691Z,27.02
2022-07-25T19:48:43.995Z,26.89
2022-07-25T19:51:13.331Z,26.82
2022-07-25T19:53:40.611Z,26.71
2022-07-25T19:56:08.581Z,26.65
2022-07-25T19:58:38.883Z,26.61
2022-07-25T20:01:12.330Z,26.55
2022-07-25T20:03:41.915Z,26.49
2022-07-25T20:06:11.528Z,26.43
2022-07-25T20:08:39.643Z,26.37
2022-07-25T20:11:07.790Z,26.33
2022-07-25T20:13:37.903Z,26.31
2022-07-25T20:16:05.847Z,26.31
2022-07-25T20:18:32.999Z,26.31
2022-07-25T20:21:00.364Z,26.24
2022-07-25T20:23:27.864Z,26.14
2022-07-25T20:25:55.044Z,26.02
2022-07-25T20:28:22.235Z,25.95
2022-07-25T20:30:50.676Z,25.98
2022-07-25T20:33:18.387Z,26.08
2022-07-25T20:35:46.557Z,26.13
2022-07-25T20:38:13.562Z,26.01
2022-07-25T20:40:48.053Z,25.86
2022-07-25T20:43:16.637Z,25.70
2022-07-25T20:45:43.842Z,25.59
2022-07-25T20:48:11.162Z,25.51
2022-07-25T20:50:39.375Z,25.44
2022-07-25T20:53:07.472Z,25.40
2022-07-25T20:55:35.447Z,25.44
2022-07-25T20:58:05.243Z,25.36
2022-07-25T21:00:32.726Z,25.34
2022-07-25T21:03:00.474Z,25.42
2022-07-25T21:05:28.139Z,25.39
2022-07-25T21:07:55.922Z,25.35
2022-07-25T21:10:23.432Z,25.31
2022-07-25T21:12:52.890Z,25.21
2022-07-25T21:15:20.206Z,25.17
2022-07-25T21:17:47.563Z,25.05
2022-07-25T21:20:15.792Z,24.91
2022-07-25T21:22:43.448Z,24.84
2022-07-25T21:25:11.003Z,24.88
2022-07-25T21:27:39.093Z,24.83
2022-07-25T21:30:08.799Z,24.77
2022-07-25T21:32:36.243Z,24.75
2022-07-25T21:35:05.023Z,24.76
2022-07-25T21:37:32.278Z,24.75
2022-07-25T21:39:59.802Z,24.63
2022-07-25T21:42:26.999Z,24.51
2022-07-25T21:44:53.954Z,24.40
2022-07-25T21:47:21.212Z,24.34
2022-07-25T21:50:24.312Z,24.30
2022-07-25T21:52:52.509Z,24.23
2022-07-25T21:55:21.173Z,24.14
2022-07-25T21:57:49.031Z,24.10
2022-07-25T22:00:16.293Z,24.03
2022-07-25T22:02:45.999Z,23.95
2022-07-25T22:05:14.479Z,23.92
2022-07-25T22:07:42.523Z,23.84
2022-07-25T22:10:11.841Z,23.79
2022-07-25T22:12:40.282Z,23.73
2022-07-25T22:15:12.163Z,23.66
2022-07-25T22:17:48.301Z,23.60
2022-07-25T22:20:17.271Z,23.54
2022-07-25T22:22:44.671Z,23.47
2022-07-25T22:25:11.826Z,23.38
2022-07-25T22:27:38.869Z,23.31
2022-07-25T22:30:13.349Z,23.27
2022-07-25T22:32:43.416Z,23.24
2022-07-25T22:35:10.685Z,23.23
2022-07-25T22:37:43.053Z,23.21
2022-07-25T22:40:10.478Z,23.20
2022-07-25T22:42:37.643Z,23.26
2022-07-25T22:45:08.379Z,23.26
2022-07-25T22:47:35.530Z,23.22
2022-07-25T22:50:02.791Z,23.19
2022-07-25T22:52:30.291Z,23.17
2022-07-25T22:54:57.312Z,23.19
2022-07-25T22:57:24.498Z,23.13
2022-07-25T22:59:51.674Z,23.10
2022-07-25T23:02:18.770Z,23.03
2022-07-25T23:04:45.928Z,22.98
2022-07-25T23:07:12.936Z,22.94
2022-07-25T23:09:39.871Z,22.89
2022-07-25T23:12:09.498Z,22.89
2022-07-25T23:14:36.549Z,22.89
2022-07-25T23:17:17.821Z,22.87
2022-07-25T23:19:46.198Z,22.84
2022-07-25T23:22:13.534Z,22.83
2022-07-25T23:24:40.939Z,22.80
2022-07-25T23:27:08.683Z,22.74
2022-07-25T23:29:38.505Z,22.70
2022-07-25T23:32:06.216Z,22.64
2022-07-25T23:34:34.311Z,22.59
2022-07-25T23:37:01.419Z,22.55
2022-07-25T23:39:29.483Z,22.51
2022-07-25T23:41:56.611Z,22.57
2022-07-25T23:44:23.792Z,22.60
2022-07-25T23:46:55.373Z,22.74
2022-07-25T23:49:23.926Z,22.75
2022-07-25T23:51:51.256Z,22.71
2022-07-25T23:54:18.362Z,22.70
2022-07-25T23:56:45.507Z,22.63
2022-07-25T23:59:12.849Z,22.63
